createdAt,value
2023-02-01T10:08:13.978Z,42.21
2023-02-01T10:09:13.967Z,42.22
2023-02-01T10:10:13.926Z,42.22
2023-02-01T10:11:13.876Z,42.18
2023-02-01T10:12:13.825Z,42.16
2023-02-01T10:13:13.776Z,42.19
2023-02-01T10:14:13.708Z,42.08
2023-02-01T10:15:13.646Z,42.11
2023-02-01T12:14:07.049Z,31.33
2023-02-01T12:26:06.448Z,31.30
2023-02-01T12:27:06.396Z,31.32
2023-02-01T12:28:06.344Z,31.32
2023-02-01T12:29:06.306Z,31.33
2023-02-01T12:30:06.240Z,31.28
2023-02-01T12:31:06.372Z,31.33
2023-02-01T12:33:06.130Z,31.30
2023-02-01T12:34:06.099Z,31.22
2023-02-01T12:35:06.033Z,31.27
2023-02-01T12:36:06.005Z,31.25
2023-02-01T12:37:07.683Z,31.20
2023-02-01T12:38:06.113Z,31.00
2023-02-01T12:39:06.005Z,31.25
2023-02-01T12:40:05.975Z,31.38
2023-02-01T12:41:05.940Z,31.47
2023-02-01T12:42:05.914Z,31.46
2023-02-01T12:43:05.921Z,31.38
2023-02-01T12:44:05.854Z,31.35
2023-02-01T12:45:05.841Z,31.35
2023-02-01T12:46:05.832Z,31.35
2023-02-01T12:47:05.792Z,31.35
2023-02-01T12:48:05.778Z,31.29
2023-02-01T12:49:05.760Z,31.23
2023-02-01T12:50:05.737Z,31.17
2023-02-01T12:51:05.749Z,31.21
2023-02-01T12:52:05.739Z,31.21
2023-02-01T12:53:05.725Z,31.22
2023-02-01T12:54:05.727Z,31.15
2023-02-01T12:55:05.740Z,31.12
2023-02-01T12:56:05.689Z,31.12
2023-02-01T12:57:05.688Z,31.12
2023-02-01T12:58:05.666Z,31.13
2023-02-01T12:59:05.656Z,31.11
2023-02-01T13:00:05.652Z,31.05
2023-02-01T13:01:05.681Z,31.08
2023-02-01T13:02:05.742Z,31.04
2023-02-01T13:03:05.660Z,31.04
2023-02-01T13:04:05.570Z,31.05
2023-02-01T13:05:05.544Z,31.04
2023-02-01T13:06:05.488Z,31.04
2023-02-01T13:07:05.461Z,31.02
2023-02-01T13:08:05.398Z,30.97
2023-02-01T13:09:05.378Z,31.01
2023-02-01T13:10:05.311Z,31.01
2023-02-01T13:11:05.315Z,30.96
2023-02-01T13:12:05.301Z,30.94
2023-02-01T13:13:05.296Z,30.94
2023-02-01T13:14:05.282Z,30.95
2023-02-01T13:16:05.191Z,30.93
2023-02-01T13:17:05.197Z,30.95
2023-02-01T13:18:05.082Z,30.91
2023-02-01T13:19:05.017Z,30.93
2023-02-01T13:20:05.011Z,30.92
2023-02-01T13:21:04.882Z,30.91
2023-02-01T13:32:04.119Z,30.80
2023-02-01T13:33:54.307Z,30.79
2023-02-01T13:35:03.879Z,30.78
2023-02-01T13:36:03.810Z,30.77
2023-02-01T13:37:03.725Z,30.80
2023-02-01T13:38:03.700Z,30.79
2023-02-01T13:43:03.267Z,30.72
2023-02-01T13:44:03.194Z,30.73
2023-02-01T13:45:03.108Z,30.71
2023-02-01T13:46:03.057Z,30.71
2023-02-01T13:47:02.954Z,30.70
2023-02-01T13:48:02.873Z,30.69
2023-02-01T13:49:02.795Z,30.68
2023-02-01T13:50:02.733Z,30.71
2023-02-01T13:51:02.638Z,30.68
2023-02-01T13:52:02.573Z,30.69
2023-02-01T13:53:02.485Z,30.64
2023-02-01T13:54:02.413Z,30.64
2023-02-01T13:55:02.365Z,30.63
2023-02-01T13:56:02.266Z,30.60
2023-02-01T13:57:02.192Z,30.57
2023-02-01T13:58:02.126Z,30.57
2023-02-01T13:59:02.048Z,30.57
2023-02-01T14:00:01.964Z,30.58
2023-02-01T14:01:02.015Z,30.51
2023-02-01T14:02:01.803Z,30.51
2023-02-01T14:03:01.735Z,30.50
2023-02-01T14:04:01.723Z,30.48
2023-02-01T14:05:01.606Z,30.48
2023-02-01T14:06:01.563Z,30.46
2023-02-01T14:07:01.493Z,30.43
2023-02-01T14:08:01.444Z,30.45
2023-02-01T14:09:01.391Z,30.42
2023-02-01T14:10:01.444Z,30.39
2023-02-01T14:11:01.292Z,30.38
2023-02-01T14:12:01.310Z,30.36
2023-02-01T14:13:01.184Z,30.39
2023-02-01T14:14:01.127Z,30.35
2023-02-01T14:15:01.171Z,30.34
2023-02-01T14:16:01.040Z,30.39
2023-02-01T14:17:00.955Z,30.36
2023-02-01T14:18:00.916Z,30.36
2023-02-01T14:19:00.859Z,30.33
2023-02-01T14:20:00.793Z,30.36
2023-02-01T14:21:00.755Z,30.35
2023-02-01T14:22:00.697Z,30.30
2023-02-01T14:23:00.655Z,30.30
2023-02-01T14:24:00.611Z,30.37
2023-02-01T14:25:00.552Z,30.38
2023-02-01T14:26:00.519Z,30.29
2023-02-01T14:27:00.459Z,30.27
2023-02-01T14:28:00.410Z,30.29
2023-02-01T14:29:00.370Z,30.33
2023-02-01T14:30:00.313Z,30.27
2023-02-01T14:31:00.430Z,30.23
2023-02-01T14:32:00.316Z,30.22
2023-02-01T14:33:00.197Z,30.20
2023-02-01T14:34:00.165Z,30.18
2023-02-01T14:35:00.144Z,30.18
2023-02-01T14:36:00.107Z,30.15
2023-02-01T14:37:00.044Z,30.16
2023-02-01T14:38:00.035Z,30.16
2023-02-01T14:38:59.987Z,30.14
2023-02-01T14:39:59.944Z,30.13
2023-02-01T14:40:59.915Z,30.14
2023-02-01T14:42:02.385Z,30.11
2023-02-01T14:42:59.810Z,30.05
2023-02-01T14:43:59.743Z,30.04
2023-02-01T14:45:00.243Z,30.01
2023-02-01T14:45:59.637Z,30.02
2023-02-01T14:46:59.505Z,30.05
2023-02-01T14:47:59.440Z,30.05
2023-02-01T14:48:59.369Z,29.99
2023-02-01T14:49:59.284Z,30.01
2023-02-01T14:50:59.218Z,30.03
2023-02-01T14:51:59.142Z,30.04
2023-02-01T14:52:59.076Z,30.01
2023-02-01T14:53:58.994Z,30.01
2023-02-01T14:54:58.922Z,30.06
2023-02-01T14:55:58.853Z,30.05
2023-02-01T14:56:58.777Z,30.04
2023-02-01T14:57:58.703Z,30.01
2023-02-01T14:58:58.634Z,29.98
2023-02-01T14:59:58.565Z,29.94
2023-02-01T15:00:58.494Z,29.95
2023-02-01T15:01:58.470Z,30.00
2023-02-01T15:02:58.371Z,30.01
2023-02-01T15:03:58.274Z,29.95
2023-02-01T15:04:58.200Z,29.92
2023-02-01T15:05:58.132Z,29.98
2023-02-01T15:06:58.064Z,29.95
2023-02-01T15:07:59.015Z,29.98
2023-02-01T15:08:57.913Z,29.91
2023-02-01T15:09:57.853Z,29.88
2023-02-01T15:10:57.764Z,29.88
2023-02-01T15:11:57.700Z,29.88
2023-02-01T15:12:57.620Z,29.82
2023-02-01T15:13:57.555Z,29.78
2023-02-01T15:14:57.484Z,29.74
2023-02-01T15:15:57.427Z,29.82
2023-02-01T15:16:57.354Z,29.83
2023-02-01T15:17:57.272Z,29.77
2023-02-01T15:18:57.197Z,29.74
2023-02-01T15:19:57.128Z,29.75
2023-02-01T15:21:09.361Z,29.67
2023-02-01T15:21:57.988Z,29.64
2023-02-01T15:22:56.923Z,29.67
2023-02-01T15:23:56.850Z,29.61
2023-02-01T15:24:56.790Z,29.64
2023-02-01T15:25:56.717Z,29.67
2023-02-01T15:26:56.648Z,29.60
2023-02-01T15:27:56.589Z,29.56
2023-02-01T15:28:56.501Z,29.60
2023-02-01T15:29:56.437Z,29.60
2023-02-01T15:30:56.551Z,29.51
2023-02-01T15:31:56.349Z,29.53
2023-02-01T15:32:56.181Z,29.52
2023-02-01T15:33:57.306Z,29.47
2023-02-01T15:34:56.039Z,29.41
2023-02-01T15:35:55.962Z,29.42
2023-02-01T15:37:02.957Z,29.45
2023-02-01T15:37:56.859Z,29.46
2023-02-01T15:38:55.802Z,29.38
2023-02-01T15:39:55.726Z,29.38
2023-02-01T15:40:55.655Z,29.35
2023-02-01T15:41:55.572Z,29.38
2023-02-01T15:42:55.536Z,29.38
2023-02-01T15:43:55.430Z,29.34
2023-02-01T15:44:55.399Z,29.34
2023-02-01T15:45:55.277Z,29.31
2023-02-01T15:46:55.332Z,29.26
2023-02-01T15:47:55.133Z,29.29
2023-02-01T15:48:55.066Z,29.30
2023-02-01T15:49:55.011Z,29.24
2023-02-01T15:50:54.914Z,29.21
2023-02-01T15:51:54.891Z,29.24
2023-02-01T15:52:54.870Z,29.28
2023-02-01T15:53:54.833Z,29.30
2023-02-01T15:54:54.965Z,29.24
2023-02-01T15:55:54.796Z,29.21
2023-02-01T15:56:54.774Z,29.23
2023-02-01T15:57:54.751Z,29.24
2023-02-01T15:58:54.734Z,29.27
2023-02-01T15:59:54.714Z,29.22
2023-02-01T16:00:54.706Z,29.17
2023-02-01T16:01:54.748Z,29.22
2023-02-01T16:02:54.695Z,29.21
2023-02-01T16:03:54.623Z,29.15
2023-02-01T16:04:54.617Z,29.12
2023-02-01T16:05:54.584Z,29.21
2023-02-01T16:06:54.568Z,29.10
2023-02-01T16:07:54.540Z,29.09
2023-02-01T16:08:54.503Z,29.15
2023-02-01T16:09:54.489Z,29.17
2023-02-01T16:10:54.473Z,29.17
2023-02-01T16:11:54.446Z,29.16
2023-02-01T16:12:54.419Z,29.17
2023-02-01T16:13:54.397Z,29.11
2023-02-01T16:14:54.384Z,29.16
2023-02-01T16:15:54.407Z,29.14
2023-02-01T16:16:54.338Z,29.11
2023-02-01T16:17:54.326Z,29.09
2023-02-01T16:18:54.292Z,29.10
2023-02-01T16:19:54.267Z,29.04
2023-02-01T16:20:54.253Z,29.08
2023-02-01T16:21:54.234Z,29.02
2023-02-01T16:22:54.218Z,29.04
2023-02-01T16:23:54.183Z,29.01
2023-02-01T16:24:54.180Z,29.05
2023-02-01T16:25:54.143Z,29.03
2023-02-01T16:26:54.193Z,28.98
2023-02-01T16:27:54.109Z,28.93
2023-02-01T16:28:54.075Z,28.93
2023-02-01T16:29:54.044Z,28.95
2023-02-01T16:30:54.028Z,28.99
2023-02-01T16:31:54.065Z,29.01
2023-02-01T16:32:53.963Z,29.01
2023-02-01T16:33:53.940Z,28.99
2023-02-01T16:34:53.925Z,28.97
2023-02-01T16:35:53.900Z,28.96
2023-02-01T16:36:53.874Z,28.96
2023-02-01T16:37:53.868Z,28.94
2023-02-01T16:38:53.827Z,28.95
2023-02-01T16:39:53.806Z,28.93
2023-02-01T16:40:53.795Z,28.97
2023-02-01T16:41:53.763Z,28.93
2023-02-01T16:42:53.745Z,28.91
2023-02-01T16:43:53.732Z,28.92
2023-02-01T16:44:53.718Z,28.93
2023-02-01T16:45:53.694Z,28.95
2023-02-01T16:46:53.680Z,28.90
2023-02-01T16:47:53.674Z,28.89
2023-02-01T16:48:53.659Z,28.90
2023-02-01T16:49:53.633Z,28.87
2023-02-01T16:50:53.626Z,28.92
2023-02-01T16:51:53.598Z,28.92
2023-02-01T16:53:54.800Z,28.91
2023-02-01T21:38:49.654Z,28.19
2023-02-01T21:39:49.628Z,28.19
2023-02-01T21:40:49.618Z,28.20
2023-02-01T21:41:49.599Z,28.21
2023-02-01T21:42:49.576Z,28.20
2023-02-01T21:43:49.555Z,28.21
2023-02-01T21:44:49.544Z,28.19
2023-02-01T21:45:51.434Z,28.19
2023-02-01T21:46:49.514Z,28.22
2023-02-01T21:47:49.779Z,28.21
2023-02-01T21:49:03.027Z,28.19
2023-02-01T21:49:50.423Z,28.20
2023-02-01T21:50:49.374Z,28.18
2023-02-01T21:51:49.284Z,28.19
2023-02-01T21:52:49.233Z,28.21
2023-02-01T21:53:49.137Z,28.19
2023-02-01T21:54:49.100Z,28.17
2023-02-01T21:55:49.001Z,28.19
2023-02-01T21:56:48.915Z,28.19
2023-02-01T21:57:48.850Z,28.18
2023-02-01T21:58:48.805Z,28.16
2023-02-01T21:59:48.772Z,28.16
2023-02-01T22:00:48.832Z,28.17
2023-02-01T22:01:48.752Z,28.17
2023-02-01T22:02:48.749Z,28.19
2023-02-01T22:03:48.743Z,28.18
2023-02-01T22:04:48.744Z,28.15
2023-02-01T22:05:48.737Z,28.15
2023-02-01T22:06:48.723Z,28.17
2023-02-01T22:07:48.734Z,28.19
2023-02-01T22:08:48.689Z,28.17
2023-02-01T22:09:48.663Z,28.17
2023-02-01T22:10:48.648Z,28.16
2023-02-01T22:11:48.641Z,28.15
2023-02-01T22:12:48.616Z,28.16
2023-02-01T22:13:48.590Z,28.16
2023-02-01T22:14:48.571Z,28.18
2023-02-01T22:15:48.554Z,28.17
2023-02-01T22:16:48.557Z,28.18
2023-02-01T22:17:48.498Z,28.18
2023-02-01T22:18:48.483Z,28.17
2023-02-01T22:19:48.477Z,28.18
2023-02-01T22:20:48.460Z,28.18
2023-02-01T22:21:48.502Z,28.18
2023-02-01T22:22:48.441Z,28.17
2023-02-01T22:23:48.426Z,28.18
2023-02-01T22:24:48.390Z,28.16
2023-02-01T22:25:48.364Z,28.16
2023-02-01T22:26:48.425Z,28.13
2023-02-01T22:28:31.118Z,28.11
2023-02-01T22:28:49.252Z,28.13
2023-02-01T22:29:48.178Z,28.14
2023-02-01T22:30:48.208Z,28.12
2023-02-01T22:31:48.206Z,28.12
2023-02-01T22:32:47.984Z,28.13
2023-02-01T22:33:47.909Z,28.14
2023-02-01T22:34:47.839Z,28.15
2023-02-01T22:35:47.770Z,28.15
2023-02-01T22:36:47.714Z,28.13
2023-02-01T22:37:47.711Z,28.13
2023-02-01T22:38:47.701Z,28.16
2023-02-01T22:39:47.675Z,28.15
2023-02-01T22:40:47.640Z,28.13
2023-02-01T22:41:47.637Z,28.14
2023-02-01T22:42:47.622Z,28.12
2023-02-01T22:43:47.616Z,28.12
2023-02-01T22:44:47.593Z,28.12
2023-02-01T22:45:47.606Z,28.12
2023-02-01T22:46:47.553Z,28.13
2023-02-01T22:47:47.526Z,28.14
2023-02-01T22:48:47.513Z,28.11
2023-02-01T22:49:47.527Z,28.12
2023-02-01T22:50:47.518Z,28.13
2023-02-01T22:51:47.493Z,28.12
2023-02-01T22:52:47.492Z,28.12
2023-02-01T22:53:47.481Z,28.12
2023-02-01T22:54:47.489Z,28.12
2023-02-01T22:55:47.477Z,28.14
2023-02-01T22:56:47.461Z,28.14
2023-02-01T22:57:47.462Z,28.14
2023-02-01T22:58:47.435Z,28.12
2023-02-01T22:59:47.403Z,28.14
2023-02-01T23:00:47.382Z,28.13
2023-02-01T23:01:47.361Z,28.14
2023-02-01T23:02:47.366Z,28.13
2023-02-01T23:03:47.290Z,28.13
2023-02-01T23:04:47.268Z,28.16
2023-02-01T23:05:47.250Z,28.13
2023-02-01T23:06:47.218Z,28.14
2023-02-01T23:07:47.203Z,28.12
2023-02-01T23:08:47.190Z,28.10
2023-02-01T23:09:47.163Z,28.10
2023-02-01T23:10:47.153Z,28.11
2023-02-01T23:11:47.145Z,28.09
2023-02-01T23:12:47.131Z,28.09
2023-02-01T23:13:47.102Z,28.10
2023-02-01T23:43:46.672Z,28.12
2023-02-01T23:44:46.653Z,28.11
2023-02-01T23:45:46.643Z,28.14
2023-02-01T23:46:46.658Z,28.11
2023-02-01T23:47:46.623Z,28.10
2023-02-01T23:48:46.606Z,28.12
2023-02-01T23:49:46.596Z,28.12
2023-02-01T23:50:46.578Z,28.13
2023-02-01T23:51:46.566Z,28.10
2023-02-01T23:52:46.553Z,28.09
2023-02-01T23:53:46.542Z,28.09
2023-02-01T23:54:46.533Z,28.09
2023-02-01T23:55:46.525Z,28.09
2023-02-01T23:56:46.513Z,28.09
2023-02-01T23:57:46.490Z,28.09
2023-02-01T23:58:46.497Z,28.09
2023-02-01T23:59:46.477Z,28.09
